À propos.

La société.

La team Fly&Fun évolue au sein de la « Société des Ormes » (nom commercial), ayant pour activité l’instruction au pilotage sur avion de chasse L39 Albatros ainsi que les vols à sensations.

La camaraderie, la passion de l’aviation & la bonne humeur nous animent au quotidien.

Anecdote.

Son fondateur, Michel Soutiran, fût le premier pilote à faire voler un L39 en France il y a plus de 20 ans, il participa activement à son développement et son utilisation !
Il est également instructeur sur avions et hélicoptères et examinateur.

Michel Soutiran.

Ici la base.

Implantée sur l’aérodrome de Reims-Prunay, Fly&Fun profitent de la région champenoise pour voler dans un cadre exceptionnel et partager cette ferveur commune autour de l’aéronautique.

ouvrir google map
METAR :

LFQA 151330Z AUTO 25018G32KT 9999 BKN038 OVC044 12/07 Q1009


vue en direct sur l'aérodrome
facturation mentions légales politique de confidentialité
Cochet Concept
cx